createdAt,value
2018-12-17T00:00:46.692Z,100.85
2018-12-17T00:03:15.074Z,135.63
2018-12-17T00:05:43.155Z,121.28
2018-12-17T00:08:11.856Z,163.87
2018-12-17T00:10:41.405Z,175.53
2018-12-17T00:13:09.621Z,144.97
2018-12-17T00:15:37.765Z,159.80
2018-12-17T00:18:06.002Z,122.20
2018-12-17T00:20:35.487Z,163.47
2018-12-17T00:23:03.769Z,150.32
2018-12-17T00:25:32.170Z,139.90
2018-12-17T00:28:00.587Z,188.12
2018-12-17T00:30:28.785Z,167.77
2018-12-17T00:32:56.968Z,127.32
2018-12-17T00:35:25.174Z,201.50
2018-12-17T00:37:54.052Z,139.88
2018-12-17T00:40:23.875Z,159.12
2018-12-17T00:42:52.285Z,150.47
2018-12-17T00:45:21.529Z,201.20
2018-12-17T00:47:50.333Z,142.62
2018-12-17T00:50:19.409Z,165.75
2018-12-17T00:52:47.590Z,254.87
2018-12-17T00:55:15.695Z,197.45
2018-12-17T00:57:43.897Z,149.75
2018-12-17T01:00:12.269Z,194.57
2018-12-17T01:02:41.577Z,276.60
2018-12-17T01:05:10.175Z,168.90
2018-12-17T01:07:38.399Z,197.62
2018-12-17T01:10:08.398Z,165.80
2018-12-17T01:12:36.779Z,213.75
2018-12-17T01:15:07.178Z,184.28
2018-12-17T01:17:35.393Z,189.85
2018-12-17T01:20:04.607Z,233.75
2018-12-17T01:22:33.135Z,208.23
2018-12-17T01:25:01.412Z,134.63
2018-12-17T01:27:29.666Z,146.25
2018-12-17T01:29:58.172Z,123.97
2018-12-17T01:32:26.360Z,133.40
2018-12-17T01:34:54.534Z,110.90
2018-12-17T01:37:23.367Z,120.70
2018-12-17T01:39:51.681Z,140.65
2018-12-17T01:42:19.934Z,141.43
2018-12-17T01:44:48.309Z,187.03
2018-12-17T01:47:16.406Z,122.50
2018-12-17T01:49:45.382Z,125.67
2018-12-17T01:52:14.946Z,155.37
2018-12-17T01:54:43.232Z,139.95
2018-12-17T01:57:11.629Z,120.40
2018-12-17T01:59:40.457Z,136.80
2018-12-17T02:02:09.641Z,96.10
2018-12-17T02:04:37.878Z,107.63
2018-12-17T02:07:06.402Z,119.57
2018-12-17T02:09:34.656Z,113.37
2018-12-17T02:12:02.925Z,128.18
2018-12-17T02:14:31.066Z,112.92
2018-12-17T02:16:59.197Z,134.22
2018-12-17T02:19:27.740Z,103.40
2018-12-17T02:21:55.976Z,88.22
2018-12-17T02:24:24.475Z,129.70
2018-12-17T02:26:52.700Z,106.20
2018-12-17T02:29:21.056Z,125.30
2018-12-17T02:31:49.183Z,151.32
2018-12-17T02:34:18.011Z,132.85
2018-12-17T02:36:46.118Z,105.43
2018-12-17T02:39:14.951Z,161.80
2018-12-17T02:41:43.329Z,101.18
2018-12-17T02:44:11.645Z,138.70
2018-12-17T02:46:39.789Z,162.92
2018-12-17T02:49:08.862Z,104.70
2018-12-17T02:51:38.027Z,173.38
2018-12-17T02:54:06.321Z,168.68
2018-12-17T02:56:34.781Z,160.35
2018-12-17T02:59:04.085Z,120.85
2018-12-17T03:01:32.600Z,153.55
2018-12-17T03:04:01.026Z,132.97
2018-12-17T03:06:29.297Z,137.82
2018-12-17T03:08:57.990Z,175.25
2018-12-17T03:11:26.192Z,169.37
2018-12-17T03:13:54.537Z,180.90
2018-12-17T03:16:22.655Z,138.95
2018-12-17T03:18:51.015Z,158.52
2018-12-17T03:21:19.379Z,206.50
2018-12-17T03:23:47.958Z,152.65
2018-12-17T03:26:16.231Z,213.62
2018-12-17T03:28:51.579Z,178.78
2018-12-17T03:31:16.306Z,132.37
2018-12-17T03:33:44.687Z,193.52
2018-12-17T03:36:12.915Z,109.60
2018-12-17T03:38:41.177Z,174.47
2018-12-17T03:41:09.442Z,105.27
2018-12-17T03:43:38.478Z,119.08
2018-12-17T03:46:06.985Z,95.77
2018-12-17T03:48:35.427Z,133.97
2018-12-17T03:51:04.229Z,138.55
2018-12-17T03:53:32.564Z,123.78
2018-12-17T03:56:00.935Z,123.40
2018-12-17T03:58:29.782Z,103.25
2018-12-17T04:00:58.325Z,115.72
2018-12-17T04:03:26.575Z,121.13
2018-12-17T04:05:55.702Z,70.15
2018-12-17T04:08:24.189Z,68.33
2018-12-17T04:10:53.864Z,61.18
2018-12-17T04:13:22.171Z,57.88
2018-12-17T04:15:50.688Z,56.20
2018-12-17T04:18:19.337Z,64.17
2018-12-17T04:20:47.454Z,64.50
2018-12-17T04:23:15.695Z,64.05
2018-12-17T04:25:43.961Z,61.70
2018-12-17T04:28:13.134Z,75.05
2018-12-17T04:30:41.497Z,64.92
2018-12-17T04:33:09.667Z,53.20
2018-12-17T04:35:37.986Z,55.38
2018-12-17T04:38:06.130Z,58.20
2018-12-17T04:40:34.236Z,65.87
2018-12-17T04:43:02.474Z,62.62
2018-12-17T04:45:30.837Z,75.72
2018-12-17T04:47:59.184Z,63.00
2018-12-17T04:50:27.602Z,70.72
2018-12-17T04:52:55.815Z,66.65
2018-12-17T04:55:24.382Z,66.05
2018-12-17T04:57:52.996Z,69.03
2018-12-17T05:00:22.133Z,87.30
2018-12-17T05:02:50.216Z,83.87
2018-12-17T05:05:18.655Z,71.40
2018-12-17T05:07:47.395Z,75.32
2018-12-17T05:10:15.684Z,80.62
2018-12-17T05:12:43.762Z,87.42
2018-12-17T05:15:12.561Z,80.97
2018-12-17T05:17:40.824Z,79.20
2018-12-17T05:20:09.228Z,66.90
2018-12-17T05:22:37.558Z,70.55
2018-12-17T05:25:06.751Z,70.67
2018-12-17T05:27:35.277Z,69.72
2018-12-17T05:30:04.776Z,229.00
2018-12-17T05:32:33.215Z,161.22
2018-12-17T05:35:01.508Z,158.12
2018-12-17T05:37:29.783Z,211.85
2018-12-17T05:39:57.872Z,182.82
2018-12-17T05:42:26.130Z,240.15
2018-12-17T05:44:54.347Z,180.80
2018-12-17T05:47:22.651Z,203.37
2018-12-17T05:49:50.867Z,208.63
2018-12-17T05:52:19.166Z,157.25
2018-12-17T05:54:47.425Z,160.03
2018-12-17T05:57:15.620Z,126.78
2018-12-17T05:59:44.143Z,151.50
2018-12-17T06:02:12.539Z,152.82
2018-12-17T06:04:40.753Z,162.85
2018-12-17T06:07:09.326Z,147.28
2018-12-17T06:09:38.719Z,189.52
2018-12-17T06:12:07.034Z,184.32
2018-12-17T06:14:35.355Z,182.40
2018-12-17T06:17:03.814Z,170.28
2018-12-17T06:19:31.985Z,200.10
2018-12-17T06:22:00.728Z,300.22
2018-12-17T06:24:29.007Z,196.85
2018-12-17T06:26:57.571Z,174.50
2018-12-17T06:29:25.912Z,143.60
2018-12-17T06:31:54.042Z,218.25
2018-12-17T06:34:22.251Z,133.30
2018-12-17T06:36:50.355Z,189.03
2018-12-17T06:39:18.660Z,137.07
2018-12-17T06:41:47.057Z,236.77
2018-12-17T06:44:15.223Z,214.63
2018-12-17T06:46:43.431Z,174.45
2018-12-17T06:49:11.546Z,173.25
2018-12-17T06:51:40.316Z,128.80
2018-12-17T06:54:08.460Z,233.32
2018-12-17T06:56:37.010Z,140.40
2018-12-17T06:59:05.764Z,161.62
2018-12-17T07:01:34.167Z,124.97
2018-12-17T07:04:02.679Z,122.87
2018-12-17T07:06:31.080Z,213.37
2018-12-17T07:08:59.258Z,181.55
2018-12-17T07:11:27.411Z,84.85
2018-12-17T07:13:55.592Z,150.87
2018-12-17T07:16:23.785Z,159.12
2018-12-17T07:18:52.093Z,128.57
2018-12-17T07:21:20.793Z,142.43
2018-12-17T07:23:48.894Z,74.45
2018-12-17T07:26:17.167Z,79.50
2018-12-17T07:28:45.695Z,61.30
2018-12-17T07:31:13.933Z,60.88
2018-12-17T07:33:42.102Z,69.82
2018-12-17T07:36:10.328Z,49.67
2018-12-17T07:38:38.672Z,65.28
2018-12-17T07:41:07.278Z,55.75
2018-12-17T07:43:35.865Z,71.17
2018-12-17T07:46:04.539Z,86.75
2018-12-17T07:48:32.738Z,68.55
2018-12-17T07:51:01.616Z,81.50
2018-12-17T07:53:29.843Z,69.10
2018-12-17T07:55:58.226Z,72.27
2018-12-17T07:58:26.539Z,70.52
2018-12-17T08:00:54.876Z,95.47
2018-12-17T08:03:23.556Z,91.25
2018-12-17T08:05:51.908Z,98.03
2018-12-17T08:08:20.018Z,105.27
2018-12-17T08:10:48.254Z,89.03
2018-12-17T08:13:16.500Z,172.43
2018-12-17T08:15:44.916Z,118.08
2018-12-17T08:18:21.047Z,152.75
2018-12-17T08:20:49.607Z,113.00
2018-12-17T08:23:17.963Z,224.60
2018-12-17T08:25:46.561Z,155.03
2018-12-17T08:28:15.132Z,155.85
2018-12-17T08:30:43.378Z,143.50
2018-12-17T08:33:11.932Z,120.57
2018-12-17T08:35:40.133Z,98.33
2018-12-17T08:38:08.302Z,127.87
2018-12-17T08:40:37.518Z,90.17
2018-12-17T08:43:05.948Z,76.42
2018-12-17T08:45:34.145Z,69.85
2018-12-17T08:48:02.612Z,82.40
2018-12-17T08:50:31.529Z,77.15
2018-12-17T08:52:59.701Z,26.73
2018-12-17T08:55:28.014Z,59.67
2018-12-17T08:57:56.788Z,59.13
2018-12-17T09:00:25.280Z,55.23
2018-12-17T09:02:53.522Z,35.40
2018-12-17T09:05:21.969Z,40.00
2018-12-17T09:07:50.146Z,60.48
2018-12-17T09:10:18.440Z,64.95
2018-12-17T09:12:46.575Z,58.55
2018-12-17T09:15:14.844Z,49.20
2018-12-17T09:17:43.062Z,63.02
2018-12-17T09:20:11.222Z,46.50
2018-12-17T09:22:39.744Z,38.08
2018-12-17T09:25:08.241Z,31.40
2018-12-17T09:27:36.851Z,41.75
2018-12-17T09:30:07.091Z,47.67
2018-12-17T09:32:35.553Z,40.60
2018-12-17T09:35:04.377Z,16.55
2018-12-17T09:37:32.632Z,20.00
2018-12-17T09:40:00.949Z,24.77
2018-12-17T09:42:29.132Z,27.42
2018-12-17T09:44:57.339Z,25.25
2018-12-17T09:47:25.611Z,36.58
2018-12-17T09:49:53.762Z,28.67
2018-12-17T09:52:21.958Z,28.23
2018-12-17T09:54:50.188Z,34.05
2018-12-17T09:57:18.290Z,26.07
2018-12-17T09:59:46.689Z,37.00
2018-12-17T10:02:14.978Z,39.18
2018-12-17T10:04:43.102Z,34.85
2018-12-17T10:07:11.373Z,33.55
2018-12-17T10:09:39.725Z,29.40
2018-12-17T10:12:08.061Z,33.95
2018-12-17T10:14:36.534Z,22.93
2018-12-17T10:17:04.873Z,21.37
2018-12-17T10:19:33.194Z,20.97
2018-12-17T10:22:01.372Z,31.82
2018-12-17T10:24:29.438Z,20.20
2018-12-17T10:26:58.579Z,16.73
2018-12-17T10:29:26.989Z,24.43
2018-12-17T10:31:55.347Z,22.62
2018-12-17T10:34:23.565Z,32.20
2018-12-17T10:36:51.701Z,26.62
2018-12-17T10:39:20.120Z,25.97
2018-12-17T10:41:48.290Z,25.55
2018-12-17T10:44:16.620Z,25.20
2018-12-17T10:46:44.835Z,33.18
2018-12-17T10:49:13.088Z,24.80
2018-12-17T10:51:41.444Z,27.37
2018-12-17T10:54:09.779Z,19.07
2018-12-17T10:56:37.893Z,28.52
2018-12-17T10:59:07.071Z,26.15
2018-12-17T11:01:40.747Z,26.70
2018-12-17T11:04:17.029Z,30.50
2018-12-17T11:06:45.606Z,22.48
2018-12-17T11:09:14.167Z,20.48
2018-12-17T11:11:42.343Z,28.92
2018-12-17T11:14:10.999Z,16.55
2018-12-17T11:16:39.178Z,27.75
2018-12-17T11:19:07.505Z,25.45
2018-12-17T11:21:35.740Z,14.15
2018-12-17T11:24:04.106Z,26.57
2018-12-17T11:26:32.218Z,28.80
2018-12-17T11:29:00.867Z,27.80
2018-12-17T11:31:29.120Z,30.37
2018-12-17T11:33:57.340Z,30.45
2018-12-17T11:36:25.559Z,29.15
2018-12-17T11:38:53.794Z,22.60
2018-12-17T11:41:22.043Z,31.48
2018-12-17T11:43:50.122Z,24.55
2018-12-17T11:46:18.572Z,29.15
2018-12-17T11:48:46.949Z,21.90
2018-12-17T11:51:15.267Z,24.63
2018-12-17T11:53:44.078Z,30.85
2018-12-17T11:56:12.342Z,26.90
2018-12-17T11:58:40.569Z,25.25
2018-12-17T12:01:10.182Z,32.10
2018-12-17T12:03:40.912Z,24.98
2018-12-17T12:06:13.866Z,27.10
2018-12-17T12:08:39.505Z,26.87
2018-12-17T12:11:07.907Z,29.95
2018-12-17T12:13:36.928Z,29.98
2018-12-17T12:16:05.152Z,29.10
2018-12-17T12:18:33.294Z,29.07
2018-12-17T12:21:01.548Z,27.30
2018-12-17T12:23:29.703Z,28.80
2018-12-17T12:25:57.949Z,31.95
2018-12-17T12:28:26.688Z,22.77
2018-12-17T12:31:00.440Z,31.37
2018-12-17T12:33:26.172Z,20.97
2018-12-17T12:35:54.337Z,32.98
2018-12-17T12:38:22.518Z,28.17
2018-12-17T12:40:50.736Z,30.20
2018-12-17T12:43:19.101Z,28.25
2018-12-17T12:45:47.441Z,26.90
2018-12-17T12:48:15.743Z,31.80
2018-12-17T12:50:44.082Z,25.60
2018-12-17T12:53:12.855Z,34.80
2018-12-17T12:55:41.056Z,39.18
2018-12-17T12:58:09.396Z,31.30
2018-12-17T13:00:38.479Z,39.30
2018-12-17T13:03:06.642Z,36.08
2018-12-17T13:05:34.772Z,22.85
2018-12-17T13:08:03.204Z,36.88
2018-12-17T13:10:31.335Z,23.02
2018-12-17T13:12:59.726Z,29.70
2018-12-17T13:15:27.939Z,24.25
2018-12-17T13:17:56.176Z,20.77
2018-12-17T13:20:24.282Z,28.67
2018-12-17T13:22:52.409Z,26.97
2018-12-17T13:25:28.892Z,32.58
2018-12-17T13:27:57.036Z,30.30
2018-12-17T13:30:25.423Z,32.88
2018-12-17T13:32:53.873Z,25.10
2018-12-17T13:35:22.077Z,26.87
2018-12-17T13:37:50.929Z,25.90
2018-12-17T13:40:19.354Z,32.13
2018-12-17T13:42:47.581Z,27.58
2018-12-17T13:45:16.401Z,27.87
2018-12-17T13:47:45.086Z,25.15
2018-12-17T13:50:19.284Z,24.60
2018-12-17T13:52:47.438Z,19.30
2018-12-17T13:55:15.812Z,29.67
2018-12-17T13:57:44.159Z,29.67
2018-12-17T14:00:13.162Z,28.25
2018-12-17T14:02:41.469Z,33.55
2018-12-17T14:05:09.791Z,25.48
2018-12-17T14:07:38.091Z,28.07
2018-12-17T14:10:14.479Z,27.75
2018-12-17T14:12:42.860Z,12.78
2018-12-17T14:15:11.212Z,26.52
2018-12-17T14:17:41.593Z,29.57
2018-12-17T14:20:15.066Z,23.98
2018-12-17T14:22:44.206Z,20.02
2018-12-17T14:25:12.489Z,33.80
2018-12-17T14:27:40.615Z,29.60
2018-12-17T14:30:10.615Z,29.18
2018-12-17T14:32:38.774Z,31.25
2018-12-17T14:35:07.360Z,30.10
2018-12-17T14:37:39.897Z,19.98
2018-12-17T14:40:08.330Z,22.87
2018-12-17T14:42:36.606Z,27.75
2018-12-17T14:45:06.306Z,24.32
2018-12-17T14:47:34.602Z,18.73
2018-12-17T14:50:04.017Z,11.45
2018-12-17T14:52:32.229Z,23.52
2018-12-17T14:55:00.414Z,21.20
2018-12-17T14:57:28.941Z,23.67
2018-12-17T14:59:57.522Z,27.65
2018-12-17T15:02:25.872Z,24.98
2018-12-17T15:11:40.071Z,29.48
2018-12-17T15:14:08.538Z,21.15
2018-12-17T15:16:37.853Z,28.55
2018-12-17T15:19:06.169Z,32.98
2018-12-17T15:21:34.422Z,29.35
2018-12-17T15:24:02.713Z,27.10
2018-12-17T15:26:30.989Z,16.82
2018-12-17T15:28:59.806Z,17.90
2018-12-17T15:31:27.993Z,21.93
2018-12-17T15:33:56.233Z,14.43
2018-12-17T15:36:24.438Z,21.73
2018-12-17T15:38:53.315Z,19.50
2018-12-17T15:41:22.008Z,23.42
2018-12-17T15:43:50.576Z,13.70
2018-12-17T15:46:18.997Z,27.35
2018-12-17T15:48:47.158Z,8.68
2018-12-17T15:51:15.668Z,25.80
2018-12-17T15:53:43.837Z,28.25
2018-12-17T15:56:12.170Z,36.10
2018-12-17T15:58:40.468Z,43.90
2018-12-17T16:01:09.100Z,33.55
2018-12-17T16:03:37.288Z,35.20
2018-12-17T16:06:05.451Z,50.48
2018-12-17T16:08:34.073Z,29.87
2018-12-17T16:11:02.161Z,35.17
2018-12-17T16:13:30.727Z,30.17
2018-12-17T16:15:58.823Z,29.92
2018-12-17T16:18:27.043Z,39.67
2018-12-17T16:20:55.238Z,72.92
2018-12-17T16:23:23.629Z,59.40
2018-12-17T16:25:51.757Z,32.20
2018-12-17T16:28:20.050Z,24.80
2018-12-17T16:30:48.571Z,33.38
2018-12-17T16:33:16.827Z,30.65
2018-12-17T16:35:45.015Z,31.62
2018-12-17T16:38:13.750Z,26.62
2018-12-17T16:40:42.517Z,38.92
2018-12-17T16:43:10.978Z,33.92
2018-12-17T16:45:39.433Z,32.90
2018-12-17T16:48:07.613Z,39.92
2018-12-17T16:50:35.860Z,56.20
2018-12-17T16:53:04.311Z,51.80
2018-12-17T16:55:32.527Z,32.48
2018-12-17T16:58:01.347Z,41.33
2018-12-17T17:00:29.887Z,59.13
2018-12-17T17:02:58.401Z,27.17
2018-12-17T17:05:26.833Z,25.25
2018-12-17T17:07:55.236Z,30.72
2018-12-17T17:10:23.529Z,27.35
2018-12-17T17:12:51.740Z,26.07
2018-12-17T17:15:19.935Z,24.57
2018-12-17T17:17:48.312Z,26.23
2018-12-17T17:20:16.550Z,24.18
2018-12-17T17:22:44.718Z,27.82
2018-12-17T17:25:13.033Z,22.55
2018-12-17T17:27:41.413Z,26.62
2018-12-17T17:30:11.730Z,20.62
2018-12-17T17:32:39.934Z,27.00
2018-12-17T17:35:09.126Z,22.85
2018-12-17T17:37:37.295Z,29.60
2018-12-17T17:40:06.020Z,40.83
2018-12-17T17:42:34.214Z,27.90
2018-12-17T17:45:02.516Z,28.83
2018-12-17T17:47:30.849Z,33.02
2018-12-17T17:49:59.466Z,30.35
2018-12-17T17:52:27.554Z,30.68
2018-12-17T17:54:55.914Z,30.23
2018-12-17T17:57:24.239Z,35.10
2018-12-17T17:59:52.745Z,30.32
2018-12-17T18:02:20.905Z,29.12
2018-12-17T18:04:49.186Z,23.95
2018-12-17T18:07:17.467Z,19.17
2018-12-17T18:09:45.769Z,25.75
2018-12-17T18:12:14.153Z,25.62
2018-12-17T18:14:42.407Z,25.05
2018-12-17T18:17:10.531Z,24.70
2018-12-17T18:19:38.943Z,31.77
2018-12-17T18:22:07.172Z,22.77
2018-12-17T18:24:35.989Z,23.47
2018-12-17T18:27:04.296Z,28.00
2018-12-17T18:29:32.623Z,37.88
2018-12-17T18:32:00.843Z,20.60
2018-12-17T18:34:29.640Z,29.05
2018-12-17T18:36:57.962Z,32.48
2018-12-17T18:39:26.247Z,30.05
2018-12-17T18:41:54.711Z,27.50
2018-12-17T18:44:23.015Z,28.70
2018-12-17T18:46:51.390Z,27.32
2018-12-17T18:49:20.225Z,25.80
2018-12-17T18:51:48.475Z,24.23
2018-12-17T18:54:17.354Z,14.90
2018-12-17T18:56:45.544Z,15.63
2018-12-17T18:59:14.225Z,28.47
2018-12-17T19:01:42.881Z,26.62
2018-12-17T19:04:11.279Z,28.05
2018-12-17T19:06:39.962Z,29.12
2018-12-17T19:09:08.810Z,37.30
2018-12-17T19:11:37.195Z,30.10
2018-12-17T19:14:06.795Z,32.35
2018-12-17T19:16:35.688Z,34.00
2018-12-17T19:19:04.211Z,36.17
2018-12-17T19:21:32.363Z,31.60
2018-12-17T19:24:00.701Z,36.23
2018-12-17T19:26:28.891Z,28.20
2018-12-17T19:28:57.654Z,30.20
2018-12-17T19:31:27.270Z,33.18
2018-12-17T19:33:55.662Z,28.95
2018-12-17T19:36:24.168Z,108.75
2018-12-17T19:38:52.412Z,29.48
2018-12-17T19:41:20.654Z,34.20
2018-12-17T19:43:48.970Z,33.98
2018-12-17T19:46:17.355Z,29.72
2018-12-17T19:48:45.854Z,30.60
2018-12-17T19:51:14.484Z,30.85
2018-12-17T19:53:42.807Z,32.25
2018-12-17T19:56:11.259Z,36.50
2018-12-17T19:58:39.503Z,36.75
2018-12-17T20:01:07.970Z,29.35
2018-12-17T20:03:36.230Z,29.02
2018-12-17T20:06:04.490Z,21.68
2018-12-17T20:08:32.933Z,28.73
2018-12-17T20:11:01.320Z,25.48
2018-12-17T20:13:29.590Z,25.25
2018-12-17T20:15:57.802Z,27.52
2018-12-17T20:18:26.683Z,24.02
2018-12-17T20:20:54.802Z,23.25
2018-12-17T20:23:22.927Z,21.93
2018-12-17T20:25:51.862Z,31.17
2018-12-17T20:28:21.085Z,28.90
2018-12-17T20:30:49.659Z,31.48
2018-12-17T20:33:18.024Z,30.65
2018-12-17T20:35:46.248Z,26.23
2018-12-17T20:38:14.501Z,30.27
2018-12-17T20:40:42.772Z,30.90
2018-12-17T20:43:10.978Z,27.42
2018-12-17T20:45:39.148Z,32.05
2018-12-17T20:48:07.841Z,27.13
2018-12-17T20:50:36.236Z,33.95
2018-12-17T20:53:04.586Z,29.50
2018-12-17T20:55:32.796Z,28.32
2018-12-17T20:58:00.910Z,32.05
2018-12-17T21:00:29.521Z,37.00
2018-12-17T21:03:00.508Z,31.55
2018-12-17T21:05:28.216Z,32.10
2018-12-17T21:07:56.721Z,24.80
2018-12-17T21:10:25.316Z,24.32
2018-12-17T21:12:54.127Z,22.90
2018-12-17T21:15:22.275Z,25.57
2018-12-17T21:17:51.376Z,25.60
2018-12-17T21:20:19.780Z,22.65
2018-12-17T21:22:48.072Z,27.25
2018-12-17T21:25:16.482Z,23.12
2018-12-17T21:27:45.420Z,23.70
2018-12-17T21:30:13.900Z,22.70
2018-12-17T21:32:43.262Z,23.18
2018-12-17T21:35:11.648Z,24.75
2018-12-17T21:37:39.860Z,26.52
2018-12-17T21:41:33.371Z,22.67
2018-12-17T21:44:01.598Z,25.88
2018-12-17T21:46:29.984Z,25.62
2018-12-17T21:48:59.009Z,28.23
2018-12-17T21:51:28.318Z,24.82
2018-12-17T21:53:56.577Z,23.20
2018-12-17T21:56:24.896Z,18.12
2018-12-17T21:58:53.204Z,28.23
2018-12-17T22:01:21.776Z,22.00
2018-12-17T22:03:50.646Z,28.32
2018-12-17T22:06:18.830Z,27.42
2018-12-17T22:08:47.183Z,28.83
2018-12-17T22:11:15.559Z,29.15
2018-12-17T22:13:43.765Z,27.55
2018-12-17T22:16:11.916Z,27.80
2018-12-17T22:18:40.214Z,23.95
2018-12-17T22:21:08.398Z,25.90
2018-12-17T22:23:37.125Z,20.97
2018-12-17T22:26:05.525Z,22.77
2018-12-17T22:28:33.709Z,23.38
2018-12-17T22:31:02.303Z,22.07
2018-12-17T22:33:30.499Z,18.55
2018-12-17T22:35:58.834Z,25.30
2018-12-17T22:38:27.168Z,22.70
2018-12-17T22:40:55.306Z,26.40
2018-12-17T22:43:23.589Z,26.95
2018-12-17T22:45:52.637Z,25.43
2018-12-17T22:48:21.136Z,25.25
2018-12-17T22:50:49.848Z,23.07
2018-12-17T22:53:18.041Z,23.85
2018-12-17T22:55:46.408Z,24.63
2018-12-17T22:58:14.779Z,19.92
2018-12-17T23:00:47.140Z,22.93
2018-12-17T23:03:15.381Z,26.20
2018-12-17T23:05:43.622Z,15.53
2018-12-17T23:08:11.812Z,19.42
2018-12-17T23:10:51.296Z,19.52
2018-12-17T23:13:30.956Z,19.05
2018-12-17T23:16:10.651Z,20.77
2018-12-17T23:18:38.024Z,26.62
2018-12-17T23:21:06.546Z,24.77
2018-12-17T23:23:34.766Z,20.12
2018-12-17T23:26:03.043Z,22.93
2018-12-17T23:28:31.237Z,27.67
2018-12-17T23:30:59.712Z,24.67
2018-12-17T23:33:32.762Z,24.87
2018-12-17T23:35:58.950Z,24.95
2018-12-17T23:38:27.422Z,25.55
2018-12-17T23:40:56.015Z,24.05
2018-12-17T23:43:25.761Z,26.30
2018-12-17T23:45:54.211Z,23.55
2018-12-17T23:48:22.719Z,23.55
2018-12-17T23:50:51.791Z,20.77
2018-12-17T23:53:20.050Z,22.13
2018-12-17T23:55:48.300Z,22.58
2018-12-17T23:58:16.558Z,26.57
